Time;durP1;ratioP1;P1;durP2;ratioP2;P2;SDS_P1;SDS_P2;PMS_P1;PMS_P2;Temp;Humidity;BMP_temperature;BMP_pressure;BME280_temperature;BME280_humidity;BME280_pressure;Samples;Min_cycle;Max_cycle;Signal;HPM_P1;HPM_P2
2022/05/25 00:00:45;;;;;;;14.98;8.10;;;;;;;8.62;100.00;99515.44;1701251;82;21376;-63
2022/05/25 00:03:12;;;;;;;11.60;6.65;;;;;;;8.62;100.00;99521.69;1732947;81;21073;-63
2022/05/25 00:05:39;;;;;;;11.48;6.60;;;;;;;8.66;100.00;99517.91;1733623;81;21052;-62
2022/05/25 00:08:09;;;;;;;12.63;7.37;;;;;;;8.71;100.00;99517.95;1741193;81;21525;-62
2022/05/25 00:10:35;;;;;;;11.25;7.10;;;;;;;8.69;100.00;99522.27;1735738;81;21150;-62
2022/05/25 00:13:03;;;;;;;12.70;7.17;;;;;;;8.67;100.00;99527.69;1736493;81;21518;-63
2022/05/25 00:15:30;;;;;;;13.10;7.62;;;;;;;8.63;100.00;99526.58;1726888;82;21078;-62
2022/05/25 00:17:57;;;;;;;11.60;7.05;;;;;;;8.59;100.00;99524.11;1737359;81;21097;-63
2022/05/25 00:20:23;;;;;;;9.93;5.85;;;;;;;8.59;100.00;99527.65;1746444;81;21038;-62
2022/05/25 00:22:54;;;;;;;11.15;6.72;;;;;;;8.61;100.00;99528.19;1702698;82;21060;-63
2022/05/25 00:25:23;;;;;;;12.40;7.10;;;;;;;8.62;100.00;99530.37;1721446;82;21463;-63
2022/05/25 00:27:50;;;;;;;12.18;7.10;;;;;;;8.59;100.00;99529.54;1707331;83;21500;-62
2022/05/25 00:30:17;;;;;;;10.95;6.55;;;;;;;8.56;100.00;99531.42;1732265;81;21596;-62
2022/05/25 00:32:43;;;;;;;12.33;6.50;;;;;;;8.50;100.00;99531.39;1708034;82;21545;-63
2022/05/25 00:35:13;;;;;;;11.33;6.17;;;;;;;8.47;100.00;99537.88;1727125;82;20970;-62
2022/05/25 00:37:40;;;;;;;10.48;6.37;;;;;;;8.48;100.00;99536.27;1708770;83;21026;-63
2022/05/25 00:40:15;;;;;;;9.93;6.30;;;;;;;8.50;100.00;99534.10;1713487;83;20984;-63
2022/05/25 00:42:43;;;;;;;10.00;6.58;;;;;;;8.48;100.00;99540.88;1708799;83;21628;-62
2022/05/25 00:45:10;;;;;;;10.08;6.50;;;;;;;8.42;100.00;99550.89;1703926;83;20986;-63
2022/05/25 00:47:37;;;;;;;11.22;5.90;;;;;;;8.39;100.00;99550.06;1709222;83;21102;-63
2022/05/25 00:50:05;;;;;;;10.35;5.92;;;;;;;8.37;100.00;99548.14;1730046;82;20968;-62
2022/05/25 00:52:33;;;;;;;9.45;5.25;;;;;;;8.40;100.00;99548.14;1720289;82;21553;-62
2022/05/25 00:55:03;;;;;;;8.15;5.28;;;;;;;8.47;100.00;99551.45;1729323;82;21014;-62
2022/05/25 00:57:42;;;;;;;10.55;5.15;;;;;;;8.51;100.00;99553.91;1729022;82;21001;-61
2022/05/25 01:00:16;;;;;;;10.08;5.95;;;;;;;8.50;100.00;99560.44;1730113;82;20942;-63
2022/05/25 01:02:53;;;;;;;11.43;6.03;;;;;;;8.46;100.00;99553.90;1725569;82;21024;-63
2022/05/25 01:05:28;;;;;;;7.33;5.10;;;;;;;8.41;100.00;99543.83;1711785;82;21536;-62
2022/05/25 01:08:12;;;;;;;7.22;4.62;;;;;;;8.40;100.00;99551.67;1736876;82;21059;-62
2022/05/25 01:10:59;;;;;;;9.40;5.30;;;;;;;8.38;100.00;99551.14;1726250;82;21111;-63
2022/05/25 01:13:33;;;;;;;8.13;4.95;;;;;;;8.35;100.00;99555.73;1679501;82;21022;-63
2022/05/25 01:16:07;;;;;;;7.95;4.87;;;;;;;8.25;100.00;99557.53;1740416;82;21088;-62
2022/05/25 01:19:02;;;;;;;8.30;4.85;;;;;;;8.16;100.00;99555.00;1730474;82;21649;-63
2022/05/25 01:21:37;;;;;;;7.83;4.62;;;;;;;8.09;100.00;99549.81;1731910;82;21556;-63
2022/05/25 01:24:17;;;;;;;6.87;4.42;;;;;;;8.08;100.00;99553.59;1733347;82;21053;-62
2022/05/25 01:27:18;;;;;;;8.23;4.17;;;;;;;8.13;100.00;99555.00;1717461;82;21579;-64
2022/05/25 01:30:03;;;;;;;7.47;4.33;;;;;;;8.14;100.00;99557.17;1734927;82;20987;-62
2022/05/25 01:32:51;;;;;;;9.48;4.40;;;;;;;8.06;100.00;99547.62;1709665;83;21087;-63
2022/05/25 01:36:06;;;;;;;7.03;4.70;;;;;;;8.00;100.00;99552.20;1703142;83;20975;-63
2022/05/25 01:38:44;;;;;;;8.05;4.92;;;;;;;7.97;100.00;99555.97;1701959;83;21606;-62
2022/05/25 01:42:00;;;;;;;6.45;4.05;;;;;;;7.96;100.00;99555.68;1698458;83;21047;-62
2022/05/25 01:44:42;;;;;;;6.67;4.33;;;;;;;7.95;100.00;99558.11;1698781;83;20974;-63
2022/05/25 01:47:10;;;;;;;7.03;4.12;;;;;;;7.87;100.00;99558.57;1693342;83;21106;-64
2022/05/25 01:49:53;;;;;;;9.55;4.00;;;;;;;7.78;100.00;99561.48;1689576;83;21018;-62
2022/05/25 01:52:24;;;;;;;8.58;4.25;;;;;;;7.71;100.00;99565.77;1689977;83;21093;-62
2022/05/25 01:54:56;;;;;;;7.45;4.08;;;;;;;7.66;100.00;99563.53;1692917;83;21612;-62
2022/05/25 01:57:26;;;;;;;7.00;3.80;;;;;;;7.66;100.00;99563.53;1692499;82;21569;-62
2022/05/25 01:59:52;;;;;;;9.08;4.25;;;;;;;7.72;100.00;99566.59;1741408;80;21451;-62
2022/05/25 02:05:08;;;;;;;5.70;4.28;;;;;;;7.70;100.00;99568.72;1735646;80;21518;-63
2022/05/25 02:07:54;;;;;;;8.03;3.52;;;;;;;7.66;100.00;99577.08;1735681;80;21012;-63
2022/05/25 02:10:32;;;;;;;7.92;3.90;;;;;;;7.62;100.00;99586.25;1740428;80;21373;-63
2022/05/25 02:13:26;;;;;;;6.12;3.70;;;;;;;7.56;100.00;99579.69;1736752;80;21055;-63
2022/05/25 02:16:39;;;;;;;5.65;3.58;;;;;;;7.56;100.00;99583.75;1716629;82;21074;-64
2022/05/25 02:19:23;;;;;;;5.90;3.25;;;;;;;7.56;100.00;99582.40;1673008;84;21083;-62
2022/05/25 02:21:59;;;;;;;6.80;3.92;;;;;;;7.51;100.00;99581.27;1723771;80;21074;-63
2022/05/25 02:24:42;;;;;;;6.10;3.80;;;;;;;7.50;100.00;99586.96;1742102;80;21066;-63
2022/05/25 02:27:16;;;;;;;6.12;3.83;;;;;;;7.51;100.00;99591.28;1753537;80;21020;-63
2022/05/25 02:29:46;;;;;;;8.23;3.50;;;;;;;7.49;100.00;99585.31;1735336;80;20980;-63
2022/05/25 02:32:24;;;;;;;7.35;3.83;;;;;;;7.51;100.00;99591.28;1741369;80;21019;-62
2022/05/25 02:34:52;;;;;;;5.92;3.60;;;;;;;7.54;100.00;99599.45;1756840;80;21012;-63
2022/05/25 02:37:20;;;;;;;6.58;3.40;;;;;;;7.57;100.00;99598.41;1758405;80;21546;-63
2022/05/25 02:39:55;;;;;;;6.90;3.62;;;;;;;7.61;100.00;99589.23;1741877;81;20973;-63
2022/05/25 02:42:21;;;;;;;5.70;3.60;;;;;;;7.62;100.00;99599.80;1751632;80;21035;-63
2022/05/25 02:44:48;;;;;;;;;;;;;;;7.64;100.00;99600.91;1760887;80;20964;-63
2022/05/25 02:47:15;;;;;;;7.12;4.15;;;;;;;7.66;100.00;99602.81;1712958;80;20101;-63
2022/05/25 02:49:42;;;;;;;6.87;4.47;;;;;;;7.60;100.00;99603.84;1759106;80;21037;-63
2022/05/25 02:52:09;;;;;;;11.33;6.22;;;;;;;7.65;100.00;99608.77;1752743;80;21093;-63
2022/05/25 02:54:36;;;;;;;10.98;5.80;;;;;;;7.76;100.00;99609.72;1750672;80;21092;-64
2022/05/25 02:57:04;;;;;;;7.42;4.87;;;;;;;7.84;100.00;99610.05;1752006;80;21597;-64
2022/05/25 02:59:31;;;;;;;8.18;5.20;;;;;;;7.95;100.00;99619.09;1761698;80;21463;-63
2022/05/25 03:01:57;;;;;;;7.35;4.50;;;;;;;8.05;100.00;99608.87;1761030;80;21090;-63
2022/05/25 03:04:24;;;;;;;6.95;3.92;;;;;;;8.13;100.00;99616.00;1752695;80;21534;-63
2022/05/25 03:06:51;;;;;;;5.42;3.67;;;;;;;8.21;100.00;99617.42;1748932;80;21063;-63
2022/05/25 03:09:18;;;;;;;6.85;3.30;;;;;;;8.33;100.00;99612.66;1752579;80;21672;-63
2022/05/25 03:11:45;;;;;;;5.60;3.50;;;;;;;8.48;100.00;99611.41;1755454;80;21074;-64
2022/05/25 03:14:12;;;;;;;7.55;3.37;;;;;;;8.60;100.00;99608.52;1748852;80;21480;-63
2022/05/25 03:16:38;;;;;;;5.25;3.40;;;;;;;8.70;100.00;99610.75;1755695;80;21566;-63
2022/05/25 03:19:06;;;;;;;6.58;3.40;;;;;;;8.81;100.00;99614.34;1749801;80;21090;-63
2022/05/25 03:21:33;;;;;;;5.53;3.05;;;;;;;8.91;100.00;99610.31;1753671;80;21051;-63
2022/05/25 03:24:00;;;;;;;4.65;3.37;;;;;;;9.05;100.00;99611.47;1755425;80;21014;-63
2022/05/25 03:26:26;;;;;;;;;;;;;;;9.29;100.00;99619.98;1753003;80;21564;-64
2022/05/25 03:28:52;;;;;;;5.35;3.65;;;;;;;9.49;100.00;99614.06;1762126;80;20439;-63
2022/05/25 03:31:19;;;;;;;6.12;4.83;;;;;;;9.69;100.00;99611.95;1753107;80;21125;-63
2022/05/25 03:33:47;;;;;;;5.83;4.03;;;;;;;9.99;100.00;99613.89;1769511;80;21042;-63
2022/05/25 03:36:13;;;;;;;;;;;;;;;10.38;100.00;99614.22;1767377;80;21051;-64
2022/05/25 03:38:40;;;;;;;7.65;4.17;;;;;;;10.85;100.00;99605.14;1757747;80;20160;-65
2022/05/25 03:41:06;;;;;;;;;;;;;;;11.34;100.00;99602.50;1768363;80;21111;-64
2022/05/25 03:43:35;;;;;;;7.15;3.75;;;;;;;11.94;100.00;99602.72;1774777;80;20107;-64
2022/05/25 03:46:02;;;;;;;7.97;4.17;;;;;;;12.47;100.00;99605.55;1768856;80;21007;-64
2022/05/25 03:48:29;;;;;;;;;;;;;;;13.06;100.00;99602.50;1777825;80;21018;-65
2022/05/25 03:50:55;;;;;;;7.62;4.30;;;;;;;13.60;100.00;99586.27;1769290;80;20099;-64
2022/05/25 03:53:21;;;;;;;;;;;;;;;14.01;100.00;99584.53;1758332;80;21591;-65
2022/05/25 03:55:48;;;;;;;7.62;4.17;;;;;;;14.48;100.00;99590.36;1764890;80;20133;-65
2022/05/25 03:58:14;;;;;;;6.20;4.12;;;;;;;14.84;100.00;99591.89;1718020;82;21425;-65
2022/05/25 04:00:41;;;;;;;;;;;;;;;15.29;100.00;99595.09;1764589;80;21058;-65
2022/05/25 04:03:07;;;;;;;8.15;4.08;;;;;;;15.66;100.00;99598.73;1780646;80;20136;-65
2022/05/25 04:05:34;;;;;;;7.87;4.05;;;;;;;15.91;100.00;99600.32;1759216;80;20998;-65
2022/05/25 04:08:01;;;;;;;5.83;3.90;;;;;;;16.31;100.00;99604.59;1762683;80;21060;-64
2022/05/25 04:10:29;;;;;;;8.38;3.58;;;;;;;16.73;100.00;99607.38;1783568;80;21114;-64
2022/05/25 04:12:55;;;;;;;;;;;;;;;17.08;100.00;99611.92;1787899;80;21006;-64
2022/05/25 04:15:24;;;;;;;6.35;3.15;;;;;;;17.40;100.00;99612.11;1760157;80;20164;-65
2022/05/25 04:17:50;;;;;;;4.92;3.25;;;;;;;17.62;100.00;99607.91;1773390;80;21337;-65
2022/05/25 04:20:17;;;;;;;6.03;3.47;;;;;;;17.94;100.00;99610.78;1763996;80;21049;-65
2022/05/25 04:22:45;;;;;;;6.03;3.00;;;;;;;18.32;98.15;99619.19;1770703;80;21512;-65
2022/05/25 04:25:15;;;;;;;7.15;3.33;;;;;;;18.72;91.71;99615.11;1769568;80;21785;-65
2022/05/25 04:27:42;;;;;;;7.95;3.08;;;;;;;19.16;82.87;99616.59;1772092;80;21039;-65
2022/05/25 04:30:13;;;;;;;6.12;3.17;;;;;;;19.50;68.71;99604.59;1765100;80;21059;-65
2022/05/25 04:32:39;;;;;;;6.33;3.33;;;;;;;19.68;62.29;99617.72;1766112;80;21028;-65
2022/05/25 04:35:07;;;;;;;6.67;2.72;;;;;;;19.73;60.85;99616.94;1765078;80;21071;-65
2022/05/25 04:37:49;;;;;;;5.55;2.90;;;;;;;19.88;59.38;99611.40;1778129;80;20988;-65
2022/05/25 04:40:20;;;;;;;4.58;2.80;;;;;;;20.07;60.25;99613.70;1768555;80;21470;-65
2022/05/25 04:42:47;;;;;;;5.25;3.05;;;;;;;20.31;58.24;99618.80;1766057;80;20975;-65
2022/05/25 04:45:13;;;;;;;5.42;2.87;;;;;;;20.61;62.01;99615.92;1782464;80;21588;-65
2022/05/25 04:47:42;;;;;;;6.05;3.35;;;;;;;20.93;66.49;99623.39;1772047;80;21364;-65
2022/05/25 04:50:10;;;;;;;5.92;3.30;;;;;;;21.30;62.20;99620.10;1718097;82;21569;-64
2022/05/25 04:52:37;;;;;;;5.55;3.12;;;;;;;21.39;56.43;99619.43;1718002;83;21007;-62
2022/05/25 04:55:05;;;;;;;5.12;2.92;;;;;;;21.53;58.72;99624.61;1720270;82;21011;-62
2022/05/25 04:57:32;;;;;;;5.17;3.15;;;;;;;21.79;60.50;99629.19;1747117;82;20979;-62
2022/05/25 05:00:00;;;;;;;4.92;3.15;;;;;;;22.06;57.15;99627.11;1750889;82;21030;-64
2022/05/25 05:02:27;;;;;;;5.53;2.85;;;;;;;22.32;58.22;99622.50;1737594;82;21068;-61
2022/05/25 05:04:56;;;;;;;5.30;3.05;;;;;;;22.51;55.25;99621.85;1736356;81;20999;-62
2022/05/25 05:07:33;;;;;;;7.33;2.70;;;;;;;22.67;52.96;99624.13;1729391;82;21013;-57
2022/05/25 05:10:04;;;;;;;3.92;2.70;;;;;;;22.66;54.19;99621.91;1744982;82;20979;-58
2022/05/25 05:12:30;;;;;;;7.70;3.10;;;;;;;22.76;51.73;99624.19;1735360;82;21035;-62
2022/05/25 05:15:00;;;;;;;6.20;2.52;;;;;;;22.87;53.59;99625.05;1738581;82;22115;-62
2022/05/25 05:17:26;;;;;;;6.70;2.22;;;;;;;22.74;50.11;99625.72;1740889;82;20995;-61
2022/05/25 05:20:05;;;;;;;5.10;1.92;;;;;;;22.78;48.70;99622.43;1739302;82;21022;-61
2022/05/25 05:22:34;;;;;;;5.00;2.20;;;;;;;23.09;48.96;99621.68;1739848;82;21307;-62
2022/05/25 05:25:01;;;;;;;4.67;1.95;;;;;;;23.26;50.37;99622.13;1741291;82;21035;-61
2022/05/25 05:27:27;;;;;;;4.20;1.75;;;;;;;23.25;45.72;99623.28;1726895;82;21086;-63
2022/05/25 05:29:58;;;;;;;2.80;1.50;;;;;;;23.17;45.34;99630.39;1727856;82;21086;-61
2022/05/25 05:32:25;;;;;;;4.08;1.72;;;;;;;23.42;46.07;99628.30;1745277;81;21468;-62
2022/05/25 05:34:52;;;;;;;4.83;1.75;;;;;;;23.58;43.38;99627.11;1725672;82;21045;-62
2022/05/25 05:37:23;;;;;;;4.28;1.67;;;;;;;23.67;41.53;99619.37;1714258;82;21065;-62
2022/05/25 05:39:54;;;;;;;7.03;2.42;;;;;;;23.53;42.06;99626.56;1710820;82;21536;-62
2022/05/25 05:42:20;;;;;;;4.25;1.70;;;;;;;23.63;42.58;99624.64;1756746;81;21079;-62
2022/05/25 05:44:50;;;;;;;4.55;1.47;;;;;;;23.52;40.72;99627.75;1762392;81;20992;-62
2022/05/25 05:47:21;;;;;;;5.53;1.72;;;;;;;23.29;42.28;99627.54;1752394;80;21075;-61
2022/05/25 05:49:47;;;;;;;3.85;1.50;;;;;;;23.35;41.11;99629.48;1750738;80;21548;-61
2022/05/25 05:52:15;;;;;;;3.95;1.50;;;;;;;23.62;40.60;99621.63;1765564;81;21031;-61
2022/05/25 05:54:41;;;;;;;2.62;1.27;;;;;;;23.90;40.12;99623.67;1754231;81;20996;-60
2022/05/25 05:57:09;;;;;;;4.67;1.50;;;;;;;24.22;41.11;99629.97;1758418;80;21522;-62
2022/05/25 05:59:38;;;;;;;3.37;1.50;;;;;;;24.53;37.52;99627.03;1761735;80;20991;-62
2022/05/25 06:02:06;;;;;;;3.85;1.20;;;;;;;24.53;36.65;99629.01;1765028;80;21122;-62
2022/05/25 06:04:33;;;;;;;3.12;1.37;;;;;;;24.47;38.00;99629.91;1762916;81;21581;-63
2022/05/25 06:07:00;;;;;;;3.02;1.42;;;;;;;24.72;35.68;99631.20;1763649;81;21015;-63
2022/05/25 06:09:27;;;;;;;2.60;1.35;;;;;;;24.78;35.19;99630.30;1752890;81;21447;-62
2022/05/25 06:11:53;;;;;;;3.05;1.50;;;;;;;24.99;35.15;99641.86;1752732;81;21011;-62
2022/05/25 06:14:20;;;;;;;3.87;1.60;;;;;;;25.16;35.67;99634.99;1765071;80;21381;-62
2022/05/25 06:19:37;;;;;;;4.67;1.32;;;;;;;25.24;36.49;99634.77;1758282;81;21027;-63
2022/05/25 06:22:08;;;;;;;2.37;1.25;;;;;;;25.25;35.20;99636.38;1756139;81;21023;-62
2022/05/25 06:24:40;;;;;;;4.35;1.27;;;;;;;25.42;34.27;99639.23;1748526;81;21047;-58
2022/05/25 06:27:08;;;;;;;2.62;1.30;;;;;;;25.71;34.59;99643.31;1751354;81;21398;-59
2022/05/25 06:29:37;;;;;;;4.10;1.37;;;;;;;25.98;32.04;99633.75;1771235;80;21578;-63
2022/05/25 06:32:08;;;;;;;2.05;1.10;;;;;;;26.04;32.05;99639.83;1775064;81;20984;-63
2022/05/25 06:34:34;;;;;;;3.65;1.17;;;;;;;26.05;31.53;99643.62;1755240;80;21034;-63
2022/05/25 06:37:01;;;;;;;3.58;1.40;;;;;;;26.25;33.67;99643.52;1755360;80;21075;-63
2022/05/25 06:39:28;;;;;;;5.55;1.72;;;;;;;26.41;31.92;99649.11;1772951;80;21023;-63
2022/05/25 06:41:55;;;;;;;7.20;1.35;;;;;;;26.25;30.88;99646.31;1780965;80;21063;-62
2022/05/25 06:44:21;;;;;;;5.58;1.60;;;;;;;25.92;32.27;99646.42;1771820;80;21007;-63
2022/05/25 06:46:48;;;;;;;4.83;1.50;;;;;;;26.02;31.78;99642.98;1759613;80;21016;-62
2022/05/25 06:49:14;;;;;;;2.95;1.30;;;;;;;26.18;31.20;99641.45;1773952;80;21015;-62
2022/05/25 06:51:42;;;;;;;3.47;1.40;;;;;;;26.27;29.43;99636.96;1755777;80;21030;-62
2022/05/25 06:54:08;;;;;;;2.52;1.30;;;;;;;26.32;30.65;99643.62;1748937;82;21062;-61
2022/05/25 06:56:35;;;;;;;5.70;1.07;;;;;;;26.54;31.76;99644.08;1760793;80;21528;-61
2022/05/25 06:59:02;;;;;;;4.00;1.40;;;;;;;26.80;30.11;99631.42;1766455;80;21042;-62
2022/05/25 07:01:29;;;;;;;4.28;1.30;;;;;;;26.59;31.34;99639.56;1763284;80;21000;-62
2022/05/25 07:03:55;;;;;;;9.83;4.60;;;;;;;26.12;29.51;99626.98;1767586;80;21011;-62
2022/05/25 07:06:23;;;;;;;3.12;1.60;;;;;;;26.02;30.58;99640.19;1756259;80;21011;-62
2022/05/25 07:08:50;;;;;;;2.27;1.30;;;;;;;25.71;30.54;99648.30;1770711;80;20946;-61
2022/05/25 07:11:16;;;;;;;2.22;1.30;;;;;;;25.68;33.53;99645.47;1764187;80;21035;-62
2022/05/25 07:13:43;;;;;;;2.47;1.30;;;;;;;25.93;31.67;99641.66;1754790;82;21569;-61
2022/05/25 07:16:13;;;;;;;3.98;1.35;;;;;;;26.03;32.11;99641.81;1759220;80;21007;-62
2022/05/25 07:18:41;;;;;;;3.17;1.17;;;;;;;26.32;30.72;99643.03;1768705;80;21020;-62
2022/05/25 07:21:14;;;;;;;3.42;1.00;;;;;;;26.69;31.71;99639.69;1763901;80;21114;-61
2022/05/25 07:23:41;;;;;;;2.65;0.98;;;;;;;26.90;27.88;99634.95;1763409;80;21471;-62
2022/05/25 07:26:09;;;;;;;1.20;0.90;;;;;;;26.51;30.48;99642.86;1776836;80;21538;-62
2022/05/25 07:28:36;;;;;;;4.37;0.98;;;;;;;26.79;29.60;99635.98;1769463;80;21007;-62
2022/05/25 07:31:11;;;;;;;2.70;1.20;;;;;;;27.11;26.73;99637.95;1725500;82;21094;-64
2022/05/25 07:33:40;;;;;;;2.70;1.55;;;;;;;26.78;25.79;99631.02;1772316;80;20968;-63
2022/05/25 07:36:08;;;;;;;4.15;1.00;;;;;;;26.16;28.75;99652.94;1762040;80;21010;-63
2022/05/25 07:38:35;;;;;;;3.20;0.90;;;;;;;26.03;28.97;99644.59;1761187;80;20972;-62
2022/05/25 07:41:02;;;;;;;3.75;1.02;;;;;;;26.16;29.14;99644.57;1786212;80;21093;-63
2022/05/25 07:43:31;;;;;;;3.33;0.82;;;;;;;26.24;27.27;99645.50;1740681;82;20979;-63
2022/05/25 07:45:59;;;;;;;3.30;1.20;;;;;;;26.07;26.93;99639.88;1723879;83;21041;-62
2022/05/25 07:48:25;;;;;;;1.62;0.80;;;;;;;26.07;28.25;99637.09;1720424;82;21484;-63
2022/05/25 07:50:52;;;;;;;1.60;0.80;;;;;;;26.25;28.48;99640.73;1716785;82;21033;-62
2022/05/25 07:56:04;;;;;;;2.58;0.78;;;;;;;26.69;26.95;99640.27;1737690;82;21078;-62
2022/05/25 07:58:32;;;;;;;9.33;1.55;;;;;;;26.78;29.14;99636.60;1699263;83;21462;-63
2022/05/25 08:01:03;;;;;;;1.87;1.00;;;;;;;26.98;28.83;99635.23;1734775;82;21082;-63
2022/05/25 08:06:13;;;;;;;2.50;0.90;;;;;;;26.86;27.45;99642.48;1725823;82;21012;-63
2022/05/25 08:08:42;;;;;;;2.75;1.00;;;;;;;26.60;26.26;99635.01;1726113;82;20972;-64
2022/05/25 08:11:11;;;;;;;2.92;1.25;;;;;;;26.42;27.52;99641.55;1704118;82;21103;-63
2022/05/25 08:13:42;;;;;;;3.45;0.98;;;;;;;26.37;28.61;99643.27;1727996;82;20943;-62
2022/05/25 08:16:09;;;;;;;4.55;0.90;;;;;;;26.37;26.22;99638.49;1711574;82;21019;-62
2022/05/25 08:18:35;;;;;;;4.65;1.20;;;;;;;26.17;26.76;99641.20;1733697;82;20982;-64
2022/05/25 08:21:03;;;;;;;2.47;1.22;;;;;;;26.18;26.33;99635.25;1713506;83;21012;-64
2022/05/25 08:23:29;;;;;;;2.30;1.25;;;;;;;26.01;27.88;99635.78;1724313;82;20962;-62
2022/05/25 08:25:56;;;;;;;3.05;1.00;;;;;;;25.97;27.31;99634.15;1723786;82;21547;-63
2022/05/25 08:28:22;;;;;;;2.10;0.85;;;;;;;25.99;26.35;99635.37;1725868;82;21002;-63
2022/05/25 08:30:49;;;;;;;2.27;0.80;;;;;;;25.90;26.34;99636.84;1732003;82;21042;-63
2022/05/25 08:33:17;;;;;;;1.65;1.15;;;;;;;25.71;26.71;99639.95;1732958;82;20958;-63
2022/05/25 08:35:45;;;;;;;1.65;0.80;;;;;;;25.71;26.84;99639.13;1699824;83;21059;-63
2022/05/25 08:38:12;;;;;;;1.98;0.95;;;;;;;25.76;27.63;99641.59;1758815;80;21030;-63
2022/05/25 08:40:38;;;;;;;2.70;1.17;;;;;;;25.94;26.90;99633.48;1761172;81;21038;-61
2022/05/25 08:43:22;;;;;;;1.95;0.90;;;;;;;25.94;27.66;99643.24;1744810;81;21070;-63
2022/05/25 08:45:58;;;;;;;2.00;0.88;;;;;;;26.02;28.37;99638.80;1761453;80;21543;-63
2022/05/25 08:48:25;;;;;;;1.75;1.00;;;;;;;26.08;28.88;99639.26;1759960;81;21024;-64
2022/05/25 08:50:56;;;;;;;3.80;1.10;;;;;;;26.22;26.18;99629.72;1751252;81;21055;-63
2022/05/25 08:53:24;;;;;;;2.05;0.80;;;;;;;26.22;28.23;99626.34;1760081;80;20959;-63
2022/05/25 08:56:35;;;;;;;2.45;0.90;;;;;;;26.30;29.26;99632.82;1761796;80;21086;-64
2022/05/25 08:59:14;;;;;;;3.58;0.80;;;;;;;26.45;26.08;99637.41;1768853;81;20955;-63
2022/05/25 09:01:58;;;;;;;1.77;0.90;;;;;;;26.36;25.72;99636.09;1760707;81;21522;-63
2022/05/25 09:04:38;;;;;;;2.27;1.02;;;;;;;26.05;25.95;99626.07;1766148;80;21076;-63
2022/05/25 09:07:28;;;;;;;1.77;0.90;;;;;;;25.66;26.74;99629.10;1754348;80;21032;-64
2022/05/25 09:09:56;;;;;;;1.57;0.90;;;;;;;25.28;27.07;99627.05;1762063;80;21005;-63
2022/05/25 09:12:37;;;;;;;7.22;1.45;;;;;;;24.98;26.83;99629.69;1770279;81;21503;-62
2022/05/25 09:15:23;;;;;;;2.58;0.88;;;;;;;24.75;27.85;99628.26;1679889;83;21059;-61
2022/05/25 09:18:05;;;;;;;1.87;1.00;;;;;;;24.60;28.89;99631.93;1768255;81;20972;-63
2022/05/25 09:20:39;;;;;;;3.60;1.07;;;;;;;24.60;29.64;99632.73;1750960;80;21056;-62
2022/05/25 09:23:08;;;;;;;6.40;2.75;;;;;;;24.62;27.22;99626.20;1767622;81;21602;-62
2022/05/25 09:25:36;;;;;;;4.40;1.17;;;;;;;24.51;26.93;99620.23;1749714;80;21031;-62
2022/05/25 09:28:12;;;;;;;2.60;1.10;;;;;;;24.23;27.56;99621.85;1761756;80;20932;-62
2022/05/25 09:30:40;;;;;;;2.17;1.20;;;;;;;24.08;29.37;99622.09;1686010;83;21118;-63
2022/05/25 09:33:23;;;;;;;2.80;1.22;;;;;;;24.24;30.00;99617.88;1714266;83;21425;-62
2022/05/25 09:35:57;;;;;;;2.08;1.15;;;;;;;24.34;29.35;99615.90;1702956;82;21601;-62
2022/05/25 09:38:38;;;;;;;3.08;1.05;;;;;;;24.40;29.37;99611.67;1768866;80;20961;-64
2022/05/25 09:41:06;;;;;;;2.33;1.07;;;;;;;24.48;30.56;99617.58;1724091;82;21044;-62
2022/05/25 09:43:34;;;;;;;3.62;1.12;;;;;;;24.62;31.78;99619.25;1748143;80;21424;-62
2022/05/25 09:46:12;;;;;;;2.62;1.30;;;;;;;24.65;30.00;99613.55;1761077;80;21625;-62
2022/05/25 09:48:44;;;;;;;2.17;1.00;;;;;;;24.63;29.44;99613.10;1757252;80;21464;-63
2022/05/25 09:51:49;;;;;;;2.92;1.10;;;;;;;24.61;28.94;99605.72;1762349;80;21074;-63
2022/05/25 09:54:34;;;;;;;2.35;1.10;;;;;;;24.61;29.88;99600.16;1755244;80;21007;-64
2022/05/25 09:57:35;;;;;;;2.70;1.05;;;;;;;24.51;28.81;99583.48;1756152;80;20999;-65
2022/05/25 10:00:18;;;;;;;2.05;1.10;;;;;;;24.59;28.61;99594.95;1758943;80;21551;-65
2022/05/25 10:03:11;;;;;;;4.15;1.00;;;;;;;24.54;29.24;99598.05;1668302;82;20956;-62
2022/05/25 10:05:56;;;;;;;3.02;1.20;;;;;;;24.53;27.08;99608.14;1756840;80;21024;-62
2022/05/25 10:08:32;;;;;;;2.35;1.00;;;;;;;24.30;26.39;99597.55;1751671;80;20960;-61
2022/05/25 10:11:27;;;;;;;1.90;0.90;;;;;;;23.96;26.88;99597.20;1746956;80;21111;-61
2022/05/25 10:13:48;;;;;;;4.28;1.22;;;;;;;23.83;28.10;99599.08;1771027;80;20968;-60
2022/05/25 10:16:29;;;;;;;3.25;1.20;;;;;;;23.94;29.27;99595.38;1769968;81;21007;-61
2022/05/25 10:18:55;;;;;;;2.40;1.00;;;;;;;24.12;29.51;99592.98;1764438;80;20967;-63
2022/05/25 10:21:29;;;;;;;4.65;1.37;;;;;;;24.36;28.79;99593.30;1760387;80;21031;-62
2022/05/25 10:23:57;;;;;;;3.40;1.10;;;;;;;24.31;28.96;99583.26;1758104;80;20987;-61
2022/05/25 10:26:35;;;;;;;1.98;1.10;;;;;;;24.22;28.12;99582.69;1758596;80;21476;-61
2022/05/25 10:29:08;;;;;;;2.02;1.10;;;;;;;23.93;28.25;99567.92;1757484;80;21000;-61
2022/05/25 10:37:25;;;;;;;4.92;1.50;;;;;;;23.96;28.02;99569.97;1774037;80;21518;-62
2022/05/25 10:39:59;;;;;;;2.22;0.98;;;;;;;23.76;28.85;99570.55;1764743;80;20948;-63
2022/05/25 10:42:31;;;;;;;2.35;1.00;;;;;;;23.76;28.85;99570.55;1766106;81;21043;-63
2022/05/25 10:45:18;;;;;;;1.87;1.00;;;;;;;23.72;28.92;99565.48;1770053;80;21008;-64
2022/05/25 10:48:07;;;;;;;2.95;1.47;;;;;;;24.01;28.80;99567.73;1766827;80;20936;-62
2022/05/25 10:50:59;;;;;;;5.17;1.20;;;;;;;24.01;28.80;99567.73;1769685;81;21526;-64
2022/05/25 10:57:03;;;;;;;1.50;0.90;;;;;;;24.47;28.11;99563.12;1756072;80;21107;-66
2022/05/25 11:00:01;;;;;;;2.95;1.02;;;;;;;24.45;27.12;99561.28;1764678;80;21359;-64
2022/05/25 11:02:39;;;;;;;2.02;1.20;;;;;;;24.36;29.73;99570.45;1763205;80;21550;-67
2022/05/25 11:05:16;;;;;;;3.25;1.07;;;;;;;24.36;29.73;99570.45;1734893;80;21849;-67
2022/05/25 11:07:43;;;;;;;2.25;0.90;;;;;;;24.56;29.27;99569.83;1771725;80;21016;-64
2022/05/25 11:10:38;;;;;;;2.77;1.02;;;;;;;24.61;26.67;99567.56;1762131;80;20972;-65
2022/05/25 11:13:40;;;;;;;3.02;0.90;;;;;;;24.57;27.15;99556.95;1772576;80;20936;-65
2022/05/25 11:16:45;;;;;;;1.90;1.00;;;;;;;24.54;25.84;99557.69;1754304;81;21618;-65
2022/05/25 11:19:53;;;;;;;2.55;1.05;;;;;;;24.52;26.84;99550.28;1759318;81;20966;-64
2022/05/25 11:22:59;;;;;;;2.35;1.12;;;;;;;24.37;25.38;99551.21;1772872;81;21559;-66
2022/05/25 11:25:50;;;;;;;3.17;0.90;;;;;;;24.31;26.50;99549.06;1754616;80;21650;-65
2022/05/25 11:28:32;;;;;;;2.17;1.12;;;;;;;24.33;27.83;99548.94;1764832;80;20980;-64
2022/05/25 11:31:12;;;;;;;2.62;1.10;;;;;;;24.49;28.03;99548.24;1756270;80;21019;-64
2022/05/25 11:34:15;;;;;;;1.62;1.02;;;;;;;24.70;26.98;99542.27;1746266;81;21558;-64
2022/05/25 11:36:57;;;;;;;2.17;1.02;;;;;;;24.81;27.01;99546.63;1772507;80;20996;-64
2022/05/25 11:39:38;;;;;;;2.30;1.10;;;;;;;24.83;27.42;99545.13;1769078;80;20971;-66
2022/05/25 11:42:41;;;;;;;2.10;1.05;;;;;;;24.74;26.65;99540.34;1766639;80;21023;-67
2022/05/25 11:45:31;;;;;;;3.08;1.10;;;;;;;24.66;27.15;99530.26;1776686;80;21013;-66
2022/05/25 11:50:34;;;;;;;2.02;1.07;;;;;;;24.78;27.60;99527.30;1790224;78;22932;-67
2022/05/25 11:53:12;;;;;;;1.95;0.98;;;;;;;24.74;28.40;99525.04;1726793;82;20976;-66
2022/05/25 11:56:10;;;;;;;1.45;0.90;;;;;;;24.88;28.34;99525.90;1733406;80;21080;-65
2022/05/25 11:58:58;;;;;;;3.30;0.90;;;;;;;24.97;27.77;99518.92;1729767;82;21089;-64
2022/05/25 12:01:36;;;;;;;3.42;0.98;;;;;;;24.94;27.19;99514.08;1701185;80;21058;-63
2022/05/25 12:05:00;;;;;;;1.92;1.05;;;;;;;24.98;27.14;99500.21;1741416;80;21093;-67
2022/05/25 12:07:41;;;;;;;2.10;0.90;;;;;;;25.06;27.58;99499.16;1657673;85;21111;-65
2022/05/25 12:10:31;;;;;;;1.75;0.80;;;;;;;25.11;29.50;99503.03;1666345;85;21099;-66
2022/05/25 12:13:15;;;;;;;2.70;1.15;;;;;;;25.14;26.64;99512.02;1733530;82;20995;-67
2022/05/25 12:16:12;;;;;;;3.77;1.30;;;;;;;25.01;28.67;99510.02;1724614;81;21149;-66
2022/05/25 12:19:06;;;;;;;3.72;1.10;;;;;;;24.98;28.36;99512.16;1749967;82;20999;-65
2022/05/25 12:21:42;;;;;;;3.30;1.00;;;;;;;24.94;28.70;99498.76;1726987;80;21594;-66
2022/05/25 12:24:18;;;;;;;4.70;1.07;;;;;;;24.92;28.87;99507.28;1737490;80;21032;-65
2022/05/25 12:26:44;;;;;;;1.85;0.95;;;;;;;24.84;28.82;99505.55;1728414;82;21039;-65